createdAt,value
2022-08-27T00:00:56.372Z,811.20
2022-08-27T00:03:26.717Z,807.20
2022-08-27T00:05:57.235Z,823.60
2022-08-27T00:08:27.724Z,817.85
2022-08-27T00:10:57.979Z,830.13
2022-08-27T00:13:28.487Z,816.95
2022-08-27T00:15:58.939Z,820.83
2022-08-27T00:18:29.258Z,823.70
2022-08-27T00:20:59.674Z,812.75
2022-08-27T00:23:30.554Z,822.35
2022-08-27T00:26:02.283Z,819.45
2022-08-27T00:28:33.522Z,823.45
2022-08-27T00:31:04.192Z,817.25
2022-08-27T00:33:34.510Z,814.50
2022-08-27T00:36:05.678Z,825.15
2022-08-27T00:38:37.278Z,828.22
2022-08-27T00:41:11.064Z,813.58
2022-08-27T00:44:03.303Z,816.35
2022-08-27T00:46:53.352Z,815.75
2022-08-27T00:49:43.046Z,811.33
2022-08-27T00:52:37.941Z,810.10
2022-08-27T00:55:17.542Z,824.45
2022-08-27T00:57:55.455Z,809.10
2022-08-27T01:00:26.160Z,820.83
2022-08-27T01:02:56.552Z,813.27
2022-08-27T01:05:29.364Z,817.70
2022-08-27T01:08:06.363Z,822.97
2022-08-27T01:10:37.329Z,820.03
2022-08-27T01:13:17.506Z,814.45
2022-08-27T01:15:48.246Z,806.88
2022-08-27T01:18:19.898Z,827.60
2022-08-27T01:21:06.709Z,832.75
2022-08-27T01:23:53.138Z,823.58
2022-08-27T01:26:25.644Z,836.25
2022-08-27T01:28:56.133Z,832.38
2022-08-27T01:31:26.642Z,831.13
2022-08-27T01:34:04.535Z,824.47
2022-08-27T01:36:36.062Z,830.35
2022-08-27T01:39:07.041Z,844.38
2022-08-27T01:41:37.421Z,842.22
2022-08-27T01:44:07.882Z,836.70
2022-08-27T01:46:38.973Z,836.80
2022-08-27T01:49:09.283Z,851.10
2022-08-27T01:51:39.985Z,836.70
2022-08-27T01:54:10.413Z,853.33
2022-08-27T01:56:41.103Z,840.80
2022-08-27T01:59:11.505Z,845.20
2022-08-27T02:01:42.136Z,847.50
2022-08-27T02:04:12.634Z,844.60
2022-08-27T02:06:43.081Z,848.10
2022-08-27T02:09:13.377Z,824.42
2022-08-27T02:11:45.321Z,839.55
2022-08-27T02:14:15.983Z,825.65
2022-08-27T02:16:52.798Z,845.17
2022-08-27T02:19:24.102Z,853.42
2022-08-27T02:24:24.984Z,846.17
2022-08-27T02:26:56.051Z,824.92
2022-08-27T02:29:27.252Z,835.65
2022-08-27T02:31:57.733Z,831.92
2022-08-27T02:34:28.490Z,825.23
2022-08-27T02:36:59.838Z,836.03
2022-08-27T02:39:31.066Z,845.97
2022-08-27T11:05:25.713Z,5.00
2022-08-27T11:08:28.831Z,5.35
2022-08-27T11:11:35.123Z,4.68
2022-08-27T11:19:55.570Z,5.25
2022-08-27T11:22:39.930Z,5.60
2022-08-27T11:25:25.120Z,5.82
2022-08-27T11:27:58.631Z,5.03
2022-08-27T11:34:16.680Z,4.25
2022-08-27T11:36:59.148Z,4.88
2022-08-27T11:39:51.720Z,4.85
2022-08-27T11:42:38.424Z,6.32
2022-08-27T11:48:05.563Z,4.80
2022-08-27T11:50:36.049Z,6.13
2022-08-27T11:53:09.878Z,5.63
2022-08-27T11:55:42.182Z,7.72
2022-08-27T11:58:26.362Z,6.50
2022-08-27T12:01:00.921Z,5.47
2022-08-27T12:03:36.219Z,6.13
2022-08-27T12:06:28.559Z,6.55
2022-08-27T12:09:16.214Z,6.05
2022-08-27T12:12:19.463Z,5.97
2022-08-27T12:15:26.605Z,6.07
2022-08-27T12:21:16.284Z,5.57
2022-08-27T12:24:12.662Z,6.25
2022-08-27T12:26:45.601Z,6.78
2022-08-27T12:29:45.976Z,7.40
2022-08-27T16:00:37.077Z,15.60
2022-08-27T16:05:59.883Z,568.53
2022-08-27T16:08:36.790Z,490.83
2022-08-27T16:13:57.982Z,7.43
2022-08-27T16:16:34.522Z,7.70
2022-08-27T16:19:07.516Z,9.85
2022-08-27T16:32:58.183Z,8.07
2022-08-27T16:35:35.281Z,7.95
2022-08-27T16:38:09.046Z,16.70
2022-08-27T16:40:44.046Z,23.15
2022-08-27T16:46:10.227Z,126.97
2022-08-27T16:49:01.604Z,5.43
2022-08-27T16:54:19.337Z,6.07
2022-08-27T16:59:19.238Z,156.48
2022-08-27T17:07:18.344Z,13.50
2022-08-27T17:09:56.189Z,6.88
2022-08-27T17:12:30.675Z,11.52
2022-08-27T17:15:04.621Z,10.02
2022-08-27T17:17:34.805Z,9.65
2022-08-27T17:20:04.889Z,9.57
2022-08-27T17:22:37.074Z,5.50
2022-08-27T17:25:08.405Z,6.95
2022-08-27T17:27:40.222Z,57.60
2022-08-27T17:30:11.507Z,15.80
2022-08-27T17:32:47.379Z,9.25
2022-08-27T17:35:18.696Z,9.25
2022-08-27T17:37:50.537Z,20.13
2022-08-27T17:40:20.752Z,24.33
2022-08-27T17:42:51.298Z,36.40
2022-08-27T17:45:21.411Z,50.40
2022-08-27T17:47:51.526Z,74.97
2022-08-27T17:50:21.542Z,100.28
2022-08-27T17:52:52.004Z,144.77
2022-08-27T17:55:22.330Z,927.10
2022-08-27T17:57:52.591Z,926.42
2022-08-27T18:00:23.757Z,919.40
2022-08-27T18:02:57.064Z,918.60
2022-08-27T18:05:29.947Z,914.67
2022-08-27T18:08:00.246Z,928.55
2022-08-27T18:10:39.969Z,931.97
2022-08-27T18:13:11.939Z,926.73
2022-08-27T18:15:45.157Z,933.45
2022-08-27T18:18:16.855Z,934.97
2022-08-27T18:20:47.451Z,944.08
2022-08-27T18:23:17.810Z,938.38
2022-08-27T18:25:48.298Z,939.38
2022-08-27T18:28:21.158Z,938.90
2022-08-27T18:30:51.995Z,933.03
2022-08-27T18:33:22.457Z,925.95
2022-08-27T18:35:52.682Z,928.83
2022-08-27T18:38:23.161Z,933.80
2022-08-27T18:40:53.902Z,924.42
2022-08-27T18:43:42.256Z,935.38
2022-08-27T18:46:13.106Z,942.63
2022-08-27T18:48:43.743Z,927.72
2022-08-27T18:51:17.462Z,924.13
2022-08-27T18:53:50.703Z,936.78
2022-08-27T18:56:25.307Z,921.80
2022-08-27T18:58:55.932Z,928.10
2022-08-27T19:01:29.052Z,920.27
2022-08-27T19:04:02.777Z,924.58
2022-08-27T19:06:33.523Z,927.88
2022-08-27T19:09:04.746Z,913.25
2022-08-27T19:11:35.035Z,909.17
2022-08-27T19:16:58.001Z,933.78
2022-08-27T19:19:29.376Z,920.78
2022-08-27T19:22:13.348Z,918.78
2022-08-27T19:24:45.028Z,921.88
2022-08-27T19:27:16.172Z,930.25
2022-08-27T19:29:46.300Z,927.95
2022-08-27T19:32:16.975Z,910.63
2022-08-27T19:37:33.612Z,932.60
2022-08-27T19:40:03.796Z,927.63
2022-08-27T19:42:34.251Z,927.23
2022-08-27T19:45:24.362Z,933.35
2022-08-27T19:47:56.849Z,929.95
2022-08-27T19:50:27.955Z,928.03
2022-08-27T19:55:28.404Z,927.10
2022-08-27T19:57:58.835Z,908.10
2022-08-27T20:00:51.025Z,927.55
2022-08-27T20:03:23.356Z,940.90
2022-08-27T20:05:55.578Z,934.00
2022-08-27T20:08:26.236Z,921.30
2022-08-27T20:10:56.662Z,919.23
2022-08-27T20:13:32.434Z,920.40
2022-08-27T20:16:04.135Z,918.28
2022-08-27T20:18:34.810Z,926.20
2022-08-27T20:21:06.053Z,918.37
2022-08-27T20:23:36.765Z,918.60
2022-08-27T20:26:06.903Z,911.72
2022-08-27T20:28:39.788Z,926.08
2022-08-27T20:31:11.050Z,924.45
2022-08-27T20:33:41.444Z,911.53
2022-08-27T20:36:11.932Z,913.13
2022-08-27T20:38:42.306Z,903.40
2022-08-27T20:41:12.630Z,899.22
2022-08-27T20:43:42.853Z,916.45
2022-08-27T20:46:13.133Z,901.53
2022-08-27T20:48:43.357Z,915.60
2022-08-27T20:51:13.550Z,901.78
2022-08-27T20:53:43.737Z,908.88
2022-08-27T20:56:14.396Z,907.42
2022-08-27T20:59:03.007Z,900.93
2022-08-27T21:01:33.736Z,910.08
2022-08-27T21:04:06.569Z,906.93
2022-08-27T21:06:36.897Z,910.60
2022-08-27T21:09:07.372Z,912.33
2022-08-27T21:11:37.631Z,920.75
2022-08-27T21:14:07.971Z,910.45
2022-08-27T21:16:38.640Z,914.25
2022-08-27T21:19:08.803Z,915.17
2022-08-27T21:21:38.861Z,899.58
2022-08-27T21:24:09.024Z,912.90
2022-08-27T21:26:39.294Z,928.53
2022-08-27T21:29:09.803Z,919.60
2022-08-27T21:31:40.526Z,899.90
2022-08-27T21:34:11.535Z,908.10
2022-08-27T21:36:42.056Z,912.47
2022-08-27T21:39:14.504Z,903.97
2022-08-27T21:41:44.629Z,897.40
2022-08-27T21:44:14.559Z,909.90
2022-08-27T21:46:44.700Z,918.40
2022-08-27T21:49:15.358Z,912.13
2022-08-27T21:51:46.731Z,914.33
2022-08-27T21:56:47.152Z,904.60
2022-08-27T21:59:19.738Z,912.27
2022-08-27T22:01:55.799Z,926.75
2022-08-27T22:04:34.570Z,910.63
2022-08-27T22:07:05.205Z,922.95
2022-08-27T22:09:38.021Z,919.95
2022-08-27T22:12:09.016Z,922.78
2022-08-27T22:14:39.934Z,925.45
2022-08-27T22:17:10.164Z,924.97
2022-08-27T22:19:40.386Z,929.53
2022-08-27T22:22:12.097Z,927.28
2022-08-27T22:24:42.448Z,924.20
2022-08-27T22:27:12.630Z,915.92
2022-08-27T22:29:42.626Z,916.42
2022-08-27T22:32:12.679Z,932.75
2022-08-27T22:34:42.881Z,936.75
2022-08-27T22:37:13.086Z,937.63
2022-08-27T22:39:43.435Z,944.60
2022-08-27T22:42:13.948Z,911.28
2022-08-27T22:44:48.933Z,925.20
2022-08-27T22:47:18.995Z,916.47
2022-08-27T22:49:49.024Z,923.70
2022-08-27T22:52:28.101Z,912.35
2022-08-27T22:54:58.868Z,919.03
2022-08-27T22:57:29.561Z,913.27
2022-08-27T23:00:01.210Z,919.03
2022-08-27T23:02:31.289Z,896.10
2022-08-27T23:05:05.861Z,937.25
2022-08-27T23:07:36.900Z,902.85
2022-08-27T23:10:10.650Z,898.87
2022-08-27T23:12:44.224Z,923.20
2022-08-27T23:15:19.060Z,910.00
2022-08-27T23:17:49.474Z,912.55
2022-08-27T23:20:20.520Z,904.83
2022-08-27T23:22:52.629Z,899.53
2022-08-27T23:25:43.534Z,918.88
2022-08-27T23:28:15.797Z,915.53
2022-08-27T23:30:47.417Z,914.28
2022-08-27T23:35:52.898Z,909.50
2022-08-27T23:38:24.803Z,896.65
2022-08-27T23:40:55.612Z,903.30
2022-08-27T23:43:26.216Z,910.05
2022-08-27T23:45:56.478Z,891.83
2022-08-27T23:48:26.922Z,905.70
2022-08-27T23:50:58.189Z,892.60
2022-08-27T23:53:28.558Z,892.38
2022-08-27T23:56:00.665Z,885.50
2022-08-27T23:58:30.863Z,890.22
